Time;durP1;ratioP1;P1;durP2;ratioP2;P2;SDS_P1;SDS_P2;PMS_P1;PMS_P2;Temp;Humidity;BMP_temperature;BMP_pressure;BME280_temperature;BME280_humidity;BME280_pressure;Samples;Min_cycle;Max_cycle;Signal;HPM_P1;HPM_P2
2023/07/03 00:01:17;;;;;;;15.70;4.43;;;16.10;99.90;;;;;;4922744;28;204466;-72
2023/07/03 00:03:43;;;;;;;20.52;5.20;;;16.00;99.90;;;;;;5005091;28;20409;-71
2023/07/03 00:06:09;;;;;;;18.58;4.65;;;16.00;99.90;;;;;;4941862;28;206895;-72
2023/07/03 00:08:36;;;;;;;18.70;4.53;;;16.00;99.90;;;;;;4999402;28;20058;-71
2023/07/03 00:11:03;;;;;;;20.05;5.15;;;16.00;99.90;;;;;;4954779;28;224764;-72
2023/07/03 00:13:30;;;;;;;16.05;4.45;;;16.00;99.90;;;;;;5004390;28;20069;-72
2023/07/03 00:16:03;;;;;;;17.67;4.63;;;16.00;99.90;;;;;;4837442;28;2956684;-72
2023/07/03 00:18:30;;;;;;;17.02;4.38;;;15.90;99.90;;;;;;5003223;28;20069;-72
2023/07/03 00:20:57;;;;;;;22.55;5.63;;;15.90;99.90;;;;;;4853675;28;2993629;-70
2023/07/03 00:23:24;;;;;;;17.90;4.72;;;15.90;99.90;;;;;;5001847;28;20057;-71
2023/07/03 00:25:53;;;;;;;17.77;4.93;;;16.00;99.90;;;;;;4961424;28;212659;-71
2023/07/03 00:28:19;;;;;;;16.73;4.20;;;15.90;99.90;;;;;;5026929;28;20050;-72
2023/07/03 00:30:45;;;;;;;15.88;4.60;;;15.90;99.90;;;;;;4961445;28;231116;-71
2023/07/03 00:33:15;;;;;;;20.63;4.25;;;15.90;99.90;;;;;;5014069;28;20054;-71
2023/07/03 00:35:41;;;;;;;15.93;4.63;;;15.90;99.90;;;;;;4941438;28;175741;-72
2023/07/03 00:38:08;;;;;;;18.88;4.22;;;15.90;99.90;;;;;;4984234;28;20057;-72
2023/07/03 00:40:34;;;;;;;19.40;4.60;;;15.90;99.90;;;;;;4943023;28;217722;-71
2023/07/03 00:43:01;;;;;;;17.33;4.32;;;15.90;99.90;;;;;;4967950;28;1132672;-72
2023/07/03 00:45:27;;;;;;;14.57;4.50;;;15.90;99.90;;;;;;4917216;28;194478;-74
2023/07/03 00:47:53;;;;;;;18.17;4.25;;;15.90;99.90;;;;;;4958892;28;20054;-71
2023/07/03 00:50:20;;;;;;;18.10;4.10;;;15.90;99.90;;;;;;4931030;28;255256;-71
2023/07/03 00:52:53;;;;;;;19.50;4.57;;;15.90;99.90;;;;;;4990500;28;20058;-72
2023/07/03 00:55:20;;;;;;;18.33;4.75;;;15.80;99.90;;;;;;4915722;28;206266;-71
2023/07/03 00:57:46;;;;;;;17.35;4.97;;;15.80;99.90;;;;;;4971774;28;20054;-71
2023/07/03 01:00:13;;;;;;;22.73;5.10;;;15.80;99.90;;;;;;4937766;28;220344;-71
2023/07/03 01:02:51;;;;;;;19.70;4.78;;;15.80;99.90;;;;;;4979349;28;20049;-70
2023/07/03 01:05:30;;;;;;;20.13;4.40;;;15.80;99.90;;;;;;4942998;28;203182;-71
2023/07/03 01:07:58;;;;;;;16.88;4.57;;;15.90;99.90;;;;;;5017627;28;20061;-72
2023/07/03 01:10:26;;;;;;;19.80;4.63;;;15.80;99.90;;;;;;4969879;28;148771;-72
2023/07/03 01:12:59;;;;;;;17.65;4.80;;;15.80;99.90;;;;;;4996006;28;20042;-73
2023/07/03 01:15:30;;;;;;;17.80;4.82;;;15.80;99.90;;;;;;4960154;28;202655;-72
2023/07/03 01:17:58;;;;;;;19.13;4.65;;;15.80;99.90;;;;;;5014359;28;20062;-71
2023/07/03 01:20:28;;;;;;;19.10;4.80;;;15.80;99.90;;;;;;4930884;28;207858;-71
2023/07/03 01:23:23;;;;;;;22.35;5.20;;;15.80;99.90;;;;;;5031368;28;20049;-71
2023/07/03 01:25:51;;;;;;;18.90;4.68;;;15.90;99.90;;;;;;4950518;28;215040;-72
2023/07/03 01:28:20;;;;;;;15.13;4.07;;;15.90;99.90;;;;;;4997030;28;20058;-71
2023/07/03 01:30:48;;;;;;;19.85;4.93;;;15.90;99.90;;;;;;4948111;28;202430;-72
2023/07/03 01:33:19;;;;;;;16.88;3.85;;;15.80;99.90;;;;;;4993983;28;20054;-71
2023/07/03 01:35:47;;;;;;;17.05;4.50;;;15.80;99.90;;;;;;4933581;28;215103;-71
2023/07/03 01:38:15;;;;;;;16.98;4.07;;;15.80;99.90;;;;;;4993407;28;20054;-70
2023/07/03 01:40:41;;;;;;;14.90;3.95;;;15.80;99.90;;;;;;4945092;28;214736;-70
2023/07/03 01:43:09;;;;;;;19.35;4.40;;;15.80;99.90;;;;;;4996994;28;20047;-72
2023/07/03 01:45:44;;;;;;;17.42;4.05;;;15.80;99.90;;;;;;4947261;28;225954;-72
2023/07/03 01:48:10;;;;;;;22.10;4.18;;;15.90;99.90;;;;;;5013587;28;20392;-72
2023/07/03 01:50:38;;;;;;;19.55;4.78;;;15.90;99.90;;;;;;4948227;28;230935;-73
2023/07/03 01:53:32;;;;;;;18.00;4.30;;;15.90;99.90;;;;;;4993047;28;20066;-72
2023/07/03 01:56:12;;;;;;;18.58;3.95;;;15.90;99.90;;;;;;4941361;28;208701;-72
2023/07/03 01:58:48;;;;;;;16.65;3.88;;;15.90;99.90;;;;;;5007814;28;20058;-71
2023/07/03 02:01:41;;;;;;;19.83;4.25;;;16.00;99.90;;;;;;4929231;28;208067;-72
2023/07/03 02:04:23;;;;;;;17.15;3.78;;;16.00;99.90;;;;;;5014870;28;20050;-72
2023/07/03 02:06:53;;;;;;;20.45;4.53;;;16.00;99.90;;;;;;4949539;28;208370;-71
2023/07/03 02:09:20;;;;;;;19.08;4.00;;;16.00;99.90;;;;;;5014607;28;20065;-71
2023/07/03 02:11:54;;;;;;;18.00;4.32;;;16.00;99.90;;;;;;4920945;28;214664;-71
2023/07/03 02:14:24;;;;;;;18.05;3.88;;;15.90;99.90;;;;;;5011109;28;20166;-70
2023/07/03 02:16:52;;;;;;;16.48;3.90;;;15.90;99.90;;;;;;4951276;28;164738;-70
2023/07/03 02:19:28;;;;;;;17.35;4.20;;;15.80;99.90;;;;;;5011873;28;20046;-72
2023/07/03 02:21:56;;;;;;;19.05;4.30;;;15.70;99.90;;;;;;4959655;28;208881;-70
2023/07/03 02:24:24;;;;;;;17.00;4.32;;;15.70;99.90;;;;;;5010960;28;20056;-70
2023/07/03 02:26:51;;;;;;;14.55;3.50;;;15.60;99.90;;;;;;4957934;28;230183;-71
2023/07/03 02:29:21;;;;;;;16.65;3.70;;;15.60;99.90;;;;;;4997039;28;20397;-71
2023/07/03 02:31:47;;;;;;;16.02;3.83;;;15.60;99.90;;;;;;4938851;28;220926;-72
2023/07/03 02:34:13;;;;;;;17.77;3.92;;;15.50;99.90;;;;;;5013234;28;20054;-71
2023/07/03 02:36:40;;;;;;;18.58;3.72;;;15.50;99.90;;;;;;4951543;28;213901;-70
2023/07/03 02:39:07;;;;;;;15.52;3.47;;;15.50;99.90;;;;;;5012191;28;20065;-70
2023/07/03 02:41:33;;;;;;;13.18;3.03;;;15.50;99.90;;;;;;4967152;28;234089;-70
2023/07/03 02:44:02;;;;;;;28.83;3.50;;;15.50;99.90;;;;;;5015705;28;20057;-71
2023/07/03 02:46:29;;;;;;;16.95;3.17;;;15.50;99.90;;;;;;4929979;28;205616;-70
2023/07/03 02:48:55;;;;;;;21.70;3.65;;;15.50;99.90;;;;;;5009357;28;20038;-70
2023/07/03 02:51:21;;;;;;;15.48;3.20;;;15.40;99.90;;;;;;4944578;28;204669;-71
2023/07/03 02:53:47;;;;;;;14.40;2.97;;;15.40;99.90;;;;;;5006524;28;20419;-72
2023/07/03 02:56:13;;;;;;;17.05;3.53;;;15.40;99.90;;;;;;4942091;28;213833;-70
2023/07/03 02:58:39;;;;;;;19.83;3.55;;;15.30;99.90;;;;;;5015105;28;20057;-71
2023/07/03 03:01:06;;;;;;;13.95;3.20;;;15.30;99.90;;;;;;4948611;28;206473;-71
2023/07/03 03:03:32;;;;;;;15.60;3.13;;;15.30;99.90;;;;;;5005279;28;20065;-72
2023/07/03 03:05:58;;;;;;;15.93;2.90;;;15.20;99.90;;;;;;4941734;28;204967;-70
2023/07/03 03:08:24;;;;;;;15.25;2.80;;;15.10;99.90;;;;;;5006274;28;20506;-71
2023/07/03 03:10:51;;;;;;;14.55;3.40;;;15.10;99.90;;;;;;4938812;28;210192;-72
2023/07/03 03:13:18;;;;;;;15.95;3.20;;;15.10;99.90;;;;;;5020581;28;20054;-72
2023/07/03 03:15:44;;;;;;;17.60;3.08;;;15.10;99.90;;;;;;4953083;28;210013;-71
2023/07/03 03:18:13;;;;;;;16.60;3.45;;;15.00;99.90;;;;;;5013105;28;20057;-71
2023/07/03 03:20:39;;;;;;;17.63;3.00;;;15.00;99.90;;;;;;4974410;28;227344;-70
2023/07/03 03:23:05;;;;;;;16.83;3.20;;;14.90;99.90;;;;;;5027385;28;20054;-71
2023/07/03 03:25:33;;;;;;;13.18;3.35;;;14.80;99.90;;;;;;4941349;28;213257;-70
2023/07/03 03:27:59;;;;;;;15.25;3.50;;;14.80;99.90;;;;;;5005438;28;20093;-70
2023/07/03 03:30:25;;;;;;;15.65;3.25;;;14.70;99.90;;;;;;4937030;28;208649;-70
2023/07/03 03:32:51;;;;;;;13.63;3.30;;;14.60;99.90;;;;;;4985871;28;20050;-71
2023/07/03 03:35:17;;;;;;;16.13;3.25;;;14.60;99.90;;;;;;4947611;28;202107;-71
2023/07/03 03:37:43;;;;;;;14.75;2.95;;;14.50;99.90;;;;;;5000060;28;20057;-71
2023/07/03 03:40:10;;;;;;;15.35;3.05;;;14.50;99.90;;;;;;4949494;28;211366;-71
2023/07/03 03:42:36;;;;;;;16.20;3.25;;;14.50;99.90;;;;;;5000850;28;20065;-71
2023/07/03 03:45:04;;;;;;;14.82;2.85;;;14.50;99.90;;;;;;4923210;28;276265;-70
2023/07/03 03:47:30;;;;;;;17.38;3.10;;;14.50;99.90;;;;;;4995573;28;20054;-70
2023/07/03 03:49:56;;;;;;;13.23;2.72;;;14.50;99.90;;;;;;4935596;28;208750;-70
2023/07/03 03:52:22;;;;;;;11.20;2.58;;;14.50;99.90;;;;;;5017532;28;20053;-70
2023/07/03 03:54:48;;;;;;;13.50;2.92;;;14.50;99.90;;;;;;4975134;28;207760;-69
2023/07/03 03:57:15;;;;;;;15.77;2.42;;;14.50;99.90;;;;;;4953213;28;282610;-71
2023/07/03 03:59:44;;;;;;;20.55;2.60;;;14.50;99.90;;;;;;4987473;28;20457;-71
2023/07/03 04:02:12;;;;;;;15.20;2.72;;;14.50;99.90;;;;;;4955812;28;140836;-71
2023/07/03 04:04:41;;;;;;;14.32;2.58;;;14.50;99.90;;;;;;4989058;28;20050;-71
2023/07/03 04:07:07;;;;;;;11.98;2.42;;;14.50;99.90;;;;;;4882445;28;1561603;-71
2023/07/03 04:09:33;;;;;;;14.68;2.70;;;14.50;99.90;;;;;;4987726;28;20057;-71
2023/07/03 04:11:59;;;;;;;11.57;2.28;;;14.50;99.90;;;;;;4939022;28;213897;-71
2023/07/03 04:14:28;;;;;;;16.27;2.78;;;14.50;99.90;;;;;;4988138;28;20054;-72
2023/07/03 04:16:57;;;;;;;13.15;2.50;;;14.50;99.90;;;;;;4980754;28;209174;-71
2023/07/03 04:19:28;;;;;;;14.52;3.00;;;14.60;99.90;;;;;;5005206;28;20061;-71
2023/07/03 04:21:54;;;;;;;;;;;14.50;99.90;;;;;;4946962;28;219076;-71
2023/07/03 04:24:20;;;;;;;12.52;2.30;;;14.50;99.90;;;;;;5003428;28;19922;-70
2023/07/03 04:26:46;;;;;;;13.57;2.33;;;14.60;99.90;;;;;;4947709;28;207489;-70
2023/07/03 04:29:12;;;;;;;14.20;2.53;;;14.60;99.90;;;;;;4989006;28;20047;-70
2023/07/03 04:31:39;;;;;;;12.98;2.38;;;14.70;99.90;;;;;;4963028;28;211096;-71
2023/07/03 04:34:05;;;;;;;13.43;2.45;;;14.70;99.90;;;;;;4989367;28;20054;-71
2023/07/03 04:36:32;;;;;;;13.75;2.45;;;14.70;99.90;;;;;;4938883;28;215204;-72
2023/07/03 04:38:58;;;;;;;17.02;2.50;;;14.80;99.90;;;;;;4985740;28;20057;-71
2023/07/03 04:41:26;;;;;;;14.93;2.53;;;14.80;99.90;;;;;;4952364;28;210061;-71
2023/07/03 04:43:56;;;;;;;10.88;2.25;;;14.90;99.90;;;;;;5011003;28;20065;-71
2023/07/03 04:46:25;;;;;;;13.00;2.17;;;14.90;99.90;;;;;;4958568;28;277807;-71
2023/07/03 04:49:04;;;;;;;12.65;2.30;;;14.90;99.90;;;;;;5014894;28;20054;-71
2023/07/03 04:51:33;;;;;;;16.92;2.53;;;15.00;99.90;;;;;;4955425;28;206957;-71
2023/07/03 04:54:00;;;;;;;12.00;2.03;;;15.10;99.90;;;;;;4971798;28;20053;-71
2023/07/03 04:56:27;;;;;;;16.77;2.78;;;15.20;99.90;;;;;;4938523;28;216219;-71
2023/07/03 04:58:53;;;;;;;15.13;2.35;;;15.40;99.90;;;;;;5009756;28;20197;-72
2023/07/03 05:01:20;;;;;;;15.90;2.70;;;15.40;99.90;;;;;;4947931;28;211581;-71
2023/07/03 05:03:46;;;;;;;14.35;2.30;;;15.50;99.90;;;;;;5010854;28;20054;-72
2023/07/03 05:06:12;;;;;;;14.02;2.63;;;15.50;99.90;;;;;;4946076;28;251559;-71
2023/07/03 05:08:40;;;;;;;12.00;2.45;;;15.60;99.90;;;;;;5012941;28;20460;-72
2023/07/03 05:11:07;;;;;;;14.38;2.50;;;15.60;99.90;;;;;;4967557;28;169187;-71
2023/07/03 05:13:33;;;;;;;14.07;2.30;;;15.60;99.90;;;;;;5017881;28;20065;-72
2023/07/03 05:15:59;;;;;;;14.02;2.58;;;15.60;99.90;;;;;;4957911;28;209256;-71
2023/07/03 05:18:25;;;;;;;19.13;2.78;;;15.60;99.90;;;;;;5011878;28;20045;-72
2023/07/03 05:20:54;;;;;;;18.27;2.88;;;15.70;99.90;;;;;;4959507;28;212799;-71
2023/07/03 05:23:20;;;;;;;11.98;2.63;;;15.70;99.90;;;;;;5009389;28;20057;-72
2023/07/03 05:25:46;;;;;;;16.00;2.60;;;15.80;99.90;;;;;;4949181;28;214047;-71
2023/07/03 05:28:13;;;;;;;12.57;2.30;;;15.80;99.90;;;;;;4995499;28;20058;-71
2023/07/03 05:30:39;;;;;;;11.55;2.05;;;15.80;99.90;;;;;;4952876;28;222250;-72
2023/07/03 05:33:06;;;;;;;10.57;2.13;;;15.70;99.90;;;;;;5009641;28;20053;-72
2023/07/03 05:35:32;;;;;;;12.40;2.67;;;15.70;99.90;;;;;;4955018;28;207395;-72
2023/07/03 05:38:00;;;;;;;12.90;2.22;;;15.70;99.90;;;;;;4999083;28;20061;-72
2023/07/03 05:40:27;;;;;;;16.23;2.60;;;15.70;99.90;;;;;;4948308;28;218318;-72
2023/07/03 05:42:53;;;;;;;14.00;2.35;;;15.70;99.90;;;;;;4985498;28;20435;-70
2023/07/03 05:45:19;;;;;;;12.18;2.25;;;15.80;99.90;;;;;;4955408;28;218360;-71
2023/07/03 05:47:46;;;;;;;13.75;2.35;;;15.90;99.90;;;;;;5003447;28;20511;-71
2023/07/03 05:50:12;;;;;;;13.85;2.67;;;15.90;99.90;;;;;;4952146;28;215906;-70
2023/07/03 05:52:40;;;;;;;13.32;2.28;;;16.10;99.90;;;;;;5007155;28;20054;-71
2023/07/03 05:55:07;;;;;;;10.45;2.33;;;16.40;99.90;;;;;;4943856;28;256370;-71
2023/07/03 05:57:33;;;;;;;14.52;2.30;;;16.60;99.90;;;;;;4997010;28;20081;-71
2023/07/03 05:59:59;;;;;;;13.10;2.33;;;17.00;99.90;;;;;;4955710;28;207593;-69
2023/07/03 06:02:25;;;;;;;14.45;2.40;;;17.20;99.90;;;;;;5005876;28;20431;-71
2023/07/03 06:04:51;;;;;;;14.82;2.20;;;17.20;99.90;;;;;;4981733;28;207033;-70
2023/07/03 06:07:18;;;;;;;14.98;2.30;;;17.40;99.90;;;;;;4973809;28;20419;-72
2023/07/03 06:09:45;;;;;;;12.80;2.10;;;17.60;99.90;;;;;;5012831;28;20058;-71
2023/07/03 06:12:11;;;;;;;16.02;2.50;;;17.60;99.90;;;;;;4922722;28;207396;-72
2023/07/03 06:14:38;;;;;;;10.75;2.10;;;17.50;99.90;;;;;;5011890;28;20062;-73
2023/07/03 06:17:04;;;;;;;10.18;1.95;;;17.30;99.90;;;;;;4985073;28;204587;-71
2023/07/03 06:19:30;;;;;;;17.70;2.22;;;17.40;99.90;;;;;;5023513;28;20060;-72
2023/07/03 06:21:56;;;;;;;15.50;2.60;;;17.30;99.90;;;;;;4984469;28;207231;-71
2023/07/03 06:24:23;;;;;;;13.10;2.33;;;17.20;99.90;;;;;;4990675;28;20050;-71
2023/07/03 06:26:50;;;;;;;12.98;2.55;;;17.20;99.90;;;;;;4926112;28;207468;-71
2023/07/03 06:29:17;;;;;;;18.52;2.55;;;17.10;99.90;;;;;;4986470;28;20417;-73
2023/07/03 06:31:43;;;;;;;13.43;2.40;;;17.00;99.90;;;;;;4948264;28;205778;-71
2023/07/03 06:34:09;;;;;;;12.80;2.10;;;17.10;99.90;;;;;;4994381;28;20058;-71
2023/07/03 06:36:35;;;;;;;14.10;2.90;;;17.10;99.90;;;;;;4978631;28;208430;-72
2023/07/03 06:39:04;;;;;;;15.80;2.80;;;17.10;99.90;;;;;;5014564;28;20058;-72
2023/07/03 06:41:33;;;;;;;16.17;2.60;;;16.90;99.90;;;;;;4983956;28;206719;-72
2023/07/03 06:44:02;;;;;;;13.85;2.33;;;16.90;99.90;;;;;;5009179;28;20431;-72
2023/07/03 06:46:28;;;;;;;15.02;2.30;;;16.70;99.90;;;;;;4959388;28;214089;-72
2023/07/03 06:48:55;;;;;;;15.88;2.30;;;16.80;99.90;;;;;;4990938;28;20063;-73
2023/07/03 06:51:22;;;;;;;14.25;2.33;;;16.70;99.90;;;;;;4953107;28;219428;-72
2023/07/03 06:53:48;;;;;;;14.05;2.35;;;16.70;99.90;;;;;;4994062;28;20055;-72
2023/07/03 06:56:15;;;;;;;12.63;2.08;;;16.70;99.90;;;;;;4944053;28;202694;-73
2023/07/03 06:58:41;;;;;;;17.70;2.42;;;16.70;99.90;;;;;;5002508;28;20069;-73
2023/07/03 07:01:12;;;;;;;12.82;2.33;;;16.70;99.90;;;;;;4933820;28;206870;-72
2023/07/03 07:03:38;;;;;;;;;;;16.70;99.90;;;;;;4994485;28;20085;-72
2023/07/03 07:06:20;;;;;;;14.55;2.08;;;16.70;99.90;;;;;;4948382;28;22921;-72
2023/07/03 07:08:46;;;;;;;11.18;2.00;;;16.90;99.90;;;;;;5006764;28;20396;-73
2023/07/03 07:11:21;;;;;;;12.80;2.50;;;17.30;99.90;;;;;;4946699;28;207691;-71
2023/07/03 07:13:49;;;;;;;9.35;1.60;;;17.70;99.90;;;;;;4994349;28;20139;-72
2023/07/03 07:16:20;;;;;;;12.75;1.90;;;18.10;98.90;;;;;;4956108;28;211488;-73
2023/07/03 07:18:49;;;;;;;9.43;1.83;;;18.40;98.30;;;;;;5010126;28;20046;-72
2023/07/03 07:21:16;;;;;;;10.75;2.00;;;18.90;98.70;;;;;;4940200;28;209528;-72
2023/07/03 07:23:42;;;;;;;10.45;1.73;;;19.00;98.40;;;;;;4989638;28;20054;-72
2023/07/03 07:26:08;;;;;;;11.70;1.88;;;19.20;97.70;;;;;;4945259;28;288490;-73
2023/07/03 07:28:34;;;;;;;13.18;1.90;;;19.40;97.80;;;;;;4996378;28;20054;-73
2023/07/03 07:31:01;;;;;;;14.77;1.90;;;19.10;98.00;;;;;;4947250;28;207943;-71
2023/07/03 07:33:27;;;;;;;14.38;2.28;;;18.80;97.80;;;;;;5018156;28;20053;-71
2023/07/03 07:35:53;;;;;;;12.27;1.92;;;18.50;98.10;;;;;;4965170;28;212683;-71
2023/07/03 07:38:19;;;;;;;9.30;1.80;;;18.30;98.30;;;;;;5014460;28;20620;-71
2023/07/03 07:40:45;;;;;;;13.02;2.20;;;18.10;98.80;;;;;;4972520;28;75492;-72
2023/07/03 07:43:12;;;;;;;11.70;1.90;;;17.80;99.30;;;;;;5019764;28;20054;-71
2023/07/03 07:45:38;;;;;;;14.65;2.47;;;17.30;99.90;;;;;;4961953;28;211592;-69
2023/07/03 07:48:05;;;;;;;14.18;2.10;;;16.70;99.90;;;;;;4997970;28;20042;-69
2023/07/03 07:50:35;;;;;;;12.50;1.80;;;16.20;99.90;;;;;;4942981;28;208571;-70
2023/07/03 07:53:01;;;;;;;11.23;1.73;;;16.10;99.90;;;;;;4997460;28;20057;-70
2023/07/03 07:55:27;;;;;;;10.60;1.80;;;15.90;99.90;;;;;;4919813;28;206478;-71
2023/07/03 07:57:54;;;;;;;10.07;1.50;;;15.70;99.90;;;;;;4998245;28;20444;-70
2023/07/03 08:00:20;;;;;;;14.93;1.90;;;15.60;99.90;;;;;;4931921;28;206825;-70
2023/07/03 08:02:47;;;;;;;11.55;1.65;;;15.50;99.90;;;;;;5011390;28;20066;-70
2023/07/03 08:05:16;;;;;;;9.30;1.40;;;15.50;99.90;;;;;;4925408;28;207148;-70
2023/07/03 08:07:42;;;;;;;10.48;1.95;;;15.60;99.90;;;;;;4995448;28;20050;-69
2023/07/03 08:10:09;;;;;;;9.70;1.53;;;15.70;99.90;;;;;;4936867;28;207688;-69
2023/07/03 08:12:35;;;;;;;10.07;1.70;;;15.70;99.90;;;;;;4999886;28;20519;-69
2023/07/03 08:15:03;;;;;;;14.38;1.80;;;16.20;99.90;;;;;;4932061;28;231131;-69
2023/07/03 08:17:30;;;;;;;13.15;2.22;;;16.70;99.90;;;;;;5000245;28;20062;-70
2023/07/03 08:19:56;;;;;;;23.55;3.10;;;16.90;99.90;;;;;;4954581;28;212404;-70
2023/07/03 08:22:23;;;;;;;11.77;1.90;;;16.80;99.90;;;;;;4994507;28;20043;-71
2023/07/03 08:24:49;;;;;;;12.75;2.03;;;16.90;99.90;;;;;;4974853;28;212968;-72
2023/07/03 08:27:16;;;;;;;12.73;2.00;;;16.80;99.90;;;;;;4925915;28;207274;-71
2023/07/03 08:29:42;;;;;;;14.38;2.30;;;16.70;99.90;;;;;;4987114;28;20050;-71
2023/07/03 08:32:11;;;;;;;24.38;2.60;;;16.60;99.90;;;;;;4943420;28;217058;-71
2023/07/03 08:34:37;;;;;;;14.20;2.15;;;16.60;99.90;;;;;;5004414;28;20507;-71
2023/07/03 08:37:04;;;;;;;13.57;2.22;;;16.60;99.90;;;;;;4968018;28;207574;-71
2023/07/03 08:39:30;;;;;;;13.90;2.35;;;16.70;99.90;;;;;;4988904;28;20050;-70
2023/07/03 08:42:07;;;;;;;10.05;1.92;;;16.60;99.90;;;;;;4950372;28;207822;-71
2023/07/03 08:44:34;;;;;;;12.52;1.95;;;16.70;99.90;;;;;;5010794;28;20049;-72
2023/07/03 08:47:03;;;;;;;14.40;2.35;;;16.70;99.90;;;;;;4877553;28;1433048;-72
2023/07/03 08:49:31;;;;;;;19.90;2.47;;;17.00;99.90;;;;;;4988747;28;20061;-70
2023/07/03 08:51:59;;;;;;;11.63;2.22;;;17.00;99.90;;;;;;4948394;28;215166;-71
2023/07/03 08:54:31;;;;;;;12.20;1.80;;;17.00;99.90;;;;;;4995205;28;20079;-71
2023/07/03 08:56:58;;;;;;;17.67;2.53;;;17.10;99.90;;;;;;4956175;28;207951;-71
2023/07/03 08:59:24;;;;;;;14.88;1.95;;;17.00;99.90;;;;;;4991351;28;20061;-70
2023/07/03 09:02:03;;;;;;;9.40;1.58;;;17.00;99.90;;;;;;4974386;28;226901;-71
2023/07/03 09:04:44;;;;;;;8.50;1.55;;;17.00;99.90;;;;;;4995106;28;20066;-70
2023/07/03 09:07:29;;;;;;;11.75;1.90;;;17.20;99.90;;;;;;4940999;28;207104;-71
2023/07/03 09:10:04;;;;;;;11.50;1.87;;;17.80;99.90;;;;;;4948268;28;222852;-72
2023/07/03 09:12:36;;;;;;;11.45;1.80;;;18.00;99.90;;;;;;4971733;28;20050;-72
2023/07/03 09:15:26;;;;;;;9.60;1.70;;;18.00;99.90;;;;;;4971850;28;212751;-71
2023/07/03 09:17:55;;;;;;;12.68;1.63;;;18.00;99.90;;;;;;5041198;28;20533;-73
2023/07/03 09:20:24;;;;;;;12.32;2.15;;;17.80;99.90;;;;;;4960538;28;137546;-72
2023/07/03 09:23:25;;;;;;;12.93;1.52;;;17.80;99.90;;;;;;5038689;28;20503;-72
2023/07/03 09:26:18;;;;;;;10.05;1.70;;;17.70;99.90;;;;;;4958422;28;207897;-73
2023/07/03 09:28:44;;;;;;;10.45;1.60;;;17.60;99.90;;;;;;5010095;28;20058;-72
2023/07/03 09:31:11;;;;;;;12.02;1.80;;;17.60;99.90;;;;;;4957563;28;207527;-72
2023/07/03 09:33:37;;;;;;;12.32;1.88;;;17.60;99.90;;;;;;5008546;28;20050;-72
2023/07/03 09:36:18;;;;;;;10.38;1.58;;;17.50;99.90;;;;;;4969233;28;210005;-72
2023/07/03 09:38:44;;;;;;;9.77;1.77;;;17.40;99.90;;;;;;5023662;28;20049;-73
2023/07/03 09:41:11;;;;;;;9.75;1.40;;;17.40;99.90;;;;;;4961190;28;241053;-73
2023/07/03 09:43:43;;;;;;;9.30;1.42;;;17.20;99.90;;;;;;5015385;28;20435;-72
2023/07/03 09:46:14;;;;;;;8.68;1.40;;;17.20;99.90;;;;;;4977255;28;207399;-72
2023/07/03 09:48:40;;;;;;;7.90;1.20;;;17.10;99.90;;;;;;5007799;28;20050;-72
2023/07/03 09:51:27;;;;;;;8.45;1.40;;;17.30;99.90;;;;;;4957513;28;217023;-72
2023/07/03 09:53:56;;;;;;;10.32;1.70;;;18.00;99.90;;;;;;5000151;28;20104;-72
2023/07/03 09:56:27;;;;;;;10.15;1.30;;;18.90;99.60;;;;;;4943235;28;111927;-72
2023/07/03 09:58:59;;;;;;;8.70;1.45;;;19.60;98.10;;;;;;5000122;28;20089;-72
2023/07/03 10:01:30;;;;;;;7.68;1.40;;;20.10;98.60;;;;;;4958631;28;223979;-72
2023/07/03 10:04:07;;;;;;;8.45;1.50;;;20.90;98.10;;;;;;5000335;28;20058;-73
2023/07/03 10:06:34;;;;;;;8.70;1.20;;;21.30;98.00;;;;;;4965615;28;215837;-73
2023/07/03 10:09:05;;;;;;;10.75;1.30;;;20.90;96.40;;;;;;5003740;28;20050;-73
2023/07/03 10:12:14;;;;;;;10.10;1.48;;;19.80;97.40;;;;;;4971292;28;205272;-72
2023/07/03 10:14:46;;;;;;;10.38;1.52;;;19.50;98.60;;;;;;4992755;28;20054;-73
2023/07/03 10:17:13;;;;;;;10.23;1.70;;;19.00;98.80;;;;;;4945682;28;209342;-73
2023/07/03 10:19:45;;;;;;;7.38;1.38;;;18.60;99.40;;;;;;4994921;28;20093;-73
2023/07/03 10:22:13;;;;;;;9.45;1.65;;;18.00;99.90;;;;;;4945243;28;206513;-73
2023/07/03 10:24:41;;;;;;;9.15;1.45;;;17.90;99.90;;;;;;4996680;28;20065;-74
2023/07/03 10:27:07;;;;;;;8.25;1.52;;;18.30;99.90;;;;;;4976444;28;205790;-72
2023/07/03 10:29:46;;;;;;;9.82;1.52;;;18.30;99.90;;;;;;4997297;28;20054;-73
2023/07/03 10:32:14;;;;;;;8.38;1.40;;;18.30;99.90;;;;;;4937995;28;269369;-74
2023/07/03 10:34:47;;;;;;;14.40;1.73;;;18.50;99.90;;;;;;4995154;28;20054;-73
2023/07/03 10:37:16;;;;;;;9.18;1.70;;;19.10;99.40;;;;;;4942200;28;202700;-73
2023/07/03 10:40:04;;;;;;;8.40;1.52;;;19.10;99.00;;;;;;5014556;28;20941;-72
2023/07/03 10:42:38;;;;;;;10.82;1.70;;;19.60;98.40;;;;;;4945214;28;136766;-73
2023/07/03 10:45:13;;;;;;;8.60;1.30;;;20.30;97.10;;;;;;4942531;28;221437;-73
2023/07/03 10:48:05;;;;;;;8.23;1.20;;;20.40;96.00;;;;;;4988052;28;20073;-73
2023/07/03 10:50:48;;;;;;;10.98;1.42;;;20.40;96.00;;;;;;4947904;28;208370;-72
2023/07/03 10:53:26;;;;;;;8.23;1.23;;;20.50;95.10;;;;;;4999814;28;20068;-72
2023/07/03 10:56:07;;;;;;;6.70;1.13;;;20.40;95.20;;;;;;4936974;28;222053;-72
2023/07/03 10:59:04;;;;;;;8.63;1.40;;;20.50;95.10;;;;;;5012392;28;20054;-72
2023/07/03 11:01:44;;;;;;;9.57;1.77;;;20.10;94.90;;;;;;4964708;28;215735;-72
2023/07/03 11:04:31;;;;;;;7.00;1.40;;;19.80;95.60;;;;;;4986263;28;20137;-72
2023/07/03 11:07:07;;;;;;;8.60;1.23;;;19.70;95.40;;;;;;4972990;28;206782;-73
2023/07/03 11:09:48;;;;;;;8.40;1.20;;;19.50;95.30;;;;;;4978540;28;20495;-73
2023/07/03 11:12:17;;;;;;;8.73;1.30;;;19.30;95.40;;;;;;4913500;28;216373;-73
2023/07/03 11:15:01;;;;;;;6.57;1.20;;;19.20;95.70;;;;;;4987260;28;20424;-72
2023/07/03 11:17:47;;;;;;;6.80;1.50;;;19.20;95.50;;;;;;4970203;28;164996;-74
2023/07/03 11:20:28;;;;;;;6.32;1.10;;;19.00;95.70;;;;;;4952481;28;227002;-72
2023/07/03 11:23:06;;;;;;;7.88;1.33;;;18.70;95.70;;;;;;4989171;28;20070;-75
2023/07/03 11:25:45;;;;;;;6.13;1.13;;;18.50;95.70;;;;;;4941311;28;210511;-70
2023/07/03 11:28:33;;;;;;;8.13;1.38;;;18.40;96.00;;;;;;5018513;28;20046;-71
2023/07/03 11:31:01;;;;;;;12.40;1.65;;;18.20;96.30;;;;;;4946163;28;211273;-72
2023/07/03 11:33:29;;;;;;;7.50;1.20;;;18.10;96.80;;;;;;4992349;28;20069;-71
2023/07/03 11:35:58;;;;;;;5.47;1.02;;;18.10;96.40;;;;;;4938362;28;219549;-72
2023/07/03 11:38:26;;;;;;;8.02;1.10;;;18.20;96.40;;;;;;4993546;28;20062;-72
2023/07/03 11:40:55;;;;;;;7.40;1.23;;;18.20;96.40;;;;;;4935415;28;212973;-72
2023/07/03 11:43:28;;;;;;;9.88;1.52;;;18.30;96.60;;;;;;4994258;28;20058;-71
2023/07/03 11:45:57;;;;;;;8.10;1.25;;;18.30;96.40;;;;;;4952535;28;214641;-71
2023/07/03 11:48:42;;;;;;;7.28;1.15;;;18.40;96.50;;;;;;5014171;28;20678;-72
2023/07/03 11:51:12;;;;;;;7.70;1.40;;;18.50;96.10;;;;;;4949250;28;208840;-72
2023/07/03 11:53:49;;;;;;;11.10;1.52;;;19.10;96.60;;;;;;4979875;28;20057;-72
2023/07/03 11:56:35;;;;;;;7.95;1.45;;;19.60;95.20;;;;;;4942542;28;210389;-71
2023/07/03 11:59:26;;;;;;;8.32;1.33;;;19.50;95.30;;;;;;4997223;28;20693;-72
2023/07/03 12:02:21;;;;;;;10.20;1.40;;;19.20;95.50;;;;;;4983217;28;207688;-72
2023/07/03 12:04:53;;;;;;;9.05;1.40;;;18.90;95.80;;;;;;5002792;28;207018;-72
2023/07/03 12:07:19;;;;;;;8.35;1.42;;;18.70;96.30;;;;;;4946089;28;206232;-73
2023/07/03 12:09:46;;;;;;;11.73;1.65;;;18.60;95.80;;;;;;4994703;28;20046;-72
2023/07/03 12:12:26;;;;;;;9.98;1.60;;;18.40;95.90;;;;;;4979761;28;113591;-71
2023/07/03 12:14:56;;;;;;;5.65;1.08;;;18.20;96.00;;;;;;4983707;28;207953;-71
2023/07/03 12:17:24;;;;;;;9.23;1.55;;;17.90;96.40;;;;;;4996756;28;20054;-71
2023/07/03 12:19:54;;;;;;;10.85;1.45;;;17.80;96.60;;;;;;5005811;28;218622;-70
2023/07/03 12:22:27;;;;;;;8.05;1.33;;;17.70;96.70;;;;;;4976201;28;20050;-72
2023/07/03 12:25:08;;;;;;;9.23;1.50;;;17.60;97.00;;;;;;4960979;28;209275;-69
2023/07/03 12:27:36;;;;;;;12.23;1.20;;;17.50;97.50;;;;;;4945401;28;20050;-72
2023/07/03 12:30:05;;;;;;;8.60;1.40;;;17.30;97.60;;;;;;4934648;28;210549;-71
2023/07/03 12:32:34;;;;;;;12.45;1.60;;;17.10;98.10;;;;;;4998245;28;20051;-71
2023/07/03 12:35:17;;;;;;;8.93;1.50;;;17.00;98.50;;;;;;4941068;28;210100;-70
2023/07/03 12:37:58;;;;;;;8.38;1.52;;;17.00;99.20;;;;;;5007272;28;20447;-71
2023/07/03 12:40:25;;;;;;;8.70;1.45;;;16.90;99.90;;;;;;4953332;28;210167;-72
2023/07/03 12:42:55;;;;;;;9.07;1.35;;;16.50;99.90;;;;;;5013316;28;20480;-71
2023/07/03 12:45:24;;;;;;;11.30;1.80;;;16.50;99.90;;;;;;4948927;28;87351;-72
2023/07/03 12:48:11;;;;;;;9.68;1.60;;;16.40;99.90;;;;;;4997829;28;20065;-72